sensor_id;sensor_type;location;lat;lon;timestamp;pressure;altitude;pressure_sealevel;temperature;humidity
50518;BME280;37075;44.084;2.962;2023-07-28T00:01:23;97574.56;;;22.06;57.28
50518;BME280;37075;44.084;2.962;2023-07-28T00:04:09;97562.22;;;22.11;56.99
50518;BME280;37075;44.084;2.962;2023-07-28T00:06:55;97564.97;;;22.14;56.78
50518;BME280;37075;44.084;2.962;2023-07-28T00:09:41;97576.09;;;22.14;56.68
50518;BME280;37075;44.084;2.962;2023-07-28T00:12:27;97574.34;;;22.28;56.30
50518;BME280;37075;44.084;2.962;2023-07-28T00:15:12;97574.38;;;22.24;56.63
50518;BME280;37075;44.084;2.962;2023-07-28T00:18:00;97560.81;;;22.30;55.97
50518;BME280;37075;44.084;2.962;2023-07-28T00:20:46;97572.75;;;22.27;56.28
50518;BME280;37075;44.084;2.962;2023-07-28T00:23:31;97565.81;;;22.08;57.14
50518;BME280;37075;44.084;2.962;2023-07-28T00:26:17;97556.28;;;22.09;56.97
50518;BME280;37075;44.084;2.962;2023-07-28T00:29:05;97549.66;;;21.96;57.62
50518;BME280;37075;44.084;2.962;2023-07-28T00:31:53;97551.31;;;21.90;57.85
50518;BME280;37075;44.084;2.962;2023-07-28T00:34:40;97552.31;;;21.69;58.60
50518;BME280;37075;44.084;2.962;2023-07-28T00:37:26;97549.72;;;21.92;57.37
50518;BME280;37075;44.084;2.962;2023-07-28T00:40:12;97545.34;;;21.91;57.89
50518;BME280;37075;44.084;2.962;2023-07-28T00:42:58;97545.63;;;22.04;57.16
50518;BME280;37075;44.084;2.962;2023-07-28T00:45:43;97545.41;;;21.88;58.15
50518;BME280;37075;44.084;2.962;2023-07-28T00:48:29;97538.81;;;21.71;58.56
50518;BME280;37075;44.084;2.962;2023-07-28T00:51:16;97539.31;;;21.62;58.85
50518;BME280;37075;44.084;2.962;2023-07-28T00:54:02;97540.38;;;21.72;58.55
50518;BME280;37075;44.084;2.962;2023-07-28T00:56:49;97545.41;;;21.88;57.29
50518;BME280;37075;44.084;2.962;2023-07-28T00:59:35;97553.97;;;22.00;56.22
50518;BME280;37075;44.084;2.962;2023-07-28T01:02:21;97542.84;;;22.04;55.73
50518;BME280;37075;44.084;2.962;2023-07-28T01:05:07;97534.91;;;22.06;55.39
50518;BME280;37075;44.084;2.962;2023-07-28T01:07:57;97535.69;;;22.06;55.15
50518;BME280;37075;44.084;2.962;2023-07-28T01:10:44;97536.88;;;22.05;54.86
50518;BME280;37075;44.084;2.962;2023-07-28T01:13:30;97540.88;;;22.04;54.53
50518;BME280;37075;44.084;2.962;2023-07-28T01:16:16;97550.78;;;22.02;54.95
50518;BME280;37075;44.084;2.962;2023-07-28T01:19:02;97541.28;;;21.99;54.60
50518;BME280;37075;44.084;2.962;2023-07-28T01:21:49;97539.34;;;21.96;54.73
50518;BME280;37075;44.084;2.962;2023-07-28T01:24:41;97541.75;;;21.94;55.01
50518;BME280;37075;44.084;2.962;2023-07-28T01:27:29;97544.53;;;21.94;54.53
50518;BME280;37075;44.084;2.962;2023-07-28T01:30:15;97546.94;;;21.92;55.72
50518;BME280;37075;44.084;2.962;2023-07-28T01:33:01;97554.44;;;21.95;54.36
50518;BME280;37075;44.084;2.962;2023-07-28T01:35:51;97555.22;;;21.96;54.63
50518;BME280;37075;44.084;2.962;2023-07-28T01:38:37;97552.03;;;21.97;54.41
50518;BME280;37075;44.084;2.962;2023-07-28T01:41:23;97556.38;;;21.98;54.71
50518;BME280;37075;44.084;2.962;2023-07-28T01:44:10;97569.91;;;21.96;55.36
50518;BME280;37075;44.084;2.962;2023-07-28T01:46:56;97563.13;;;21.97;54.97
50518;BME280;37075;44.084;2.962;2023-07-28T01:49:42;97570.72;;;21.93;55.25
50518;BME280;37075;44.084;2.962;2023-07-28T01:52:28;97566.78;;;21.91;55.10
50518;BME280;37075;44.084;2.962;2023-07-28T01:55:14;97571.56;;;21.90;55.40
50518;BME280;37075;44.084;2.962;2023-07-28T01:58:01;97564.00;;;21.91;55.36
50518;BME280;37075;44.084;2.962;2023-07-28T02:00:48;97567.56;;;21.91;55.95
50518;BME280;37075;44.084;2.962;2023-07-28T02:03:34;97569.94;;;21.93;55.32
50518;BME280;37075;44.084;2.962;2023-07-28T02:06:20;97572.72;;;21.93;55.61
50518;BME280;37075;44.084;2.962;2023-07-28T02:09:06;97569.94;;;21.93;55.60
50518;BME280;37075;44.084;2.962;2023-07-28T02:11:52;97566.78;;;21.91;56.89
50518;BME280;37075;44.084;2.962;2023-07-28T02:14:38;97569.16;;;21.92;55.80
50518;BME280;37075;44.084;2.962;2023-07-28T02:17:25;97560.81;;;21.92;56.06
50518;BME280;37075;44.084;2.962;2023-07-28T02:20:11;97556.84;;;21.93;55.83
50518;BME280;37075;44.084;2.962;2023-07-28T02:22:57;97555.63;;;21.94;55.86
50518;BME280;37075;44.084;2.962;2023-07-28T02:25:43;97558.09;;;21.85;58.31
50518;BME280;37075;44.084;2.962;2023-07-28T02:28:29;97554.72;;;21.67;58.57
50518;BME280;37075;44.084;2.962;2023-07-28T02:31:15;97558.66;;;21.69;57.97
50518;BME280;37075;44.084;2.962;2023-07-28T02:34:02;97560.66;;;21.69;57.78
50518;BME280;37075;44.084;2.962;2023-07-28T02:36:48;97559.50;;;21.63;58.20
50518;BME280;37075;44.084;2.962;2023-07-28T02:39:34;97558.22;;;21.74;56.77
50518;BME280;37075;44.084;2.962;2023-07-28T02:42:20;97560.97;;;21.74;57.07
50518;BME280;37075;44.084;2.962;2023-07-28T02:45:08;97562.97;;;21.74;57.12
50518;BME280;37075;44.084;2.962;2023-07-28T02:47:54;97552.69;;;21.71;56.86
50518;BME280;37075;44.084;2.962;2023-07-28T02:50:46;97561.78;;;21.75;56.43
50518;BME280;37075;44.084;2.962;2023-07-28T02:53:32;97562.66;;;21.65;57.15
50518;BME280;37075;44.084;2.962;2023-07-28T02:56:18;97555.66;;;21.49;58.28
50518;BME280;37075;44.084;2.962;2023-07-28T02:59:05;97558.88;;;21.44;58.38
50518;BME280;37075;44.084;2.962;2023-07-28T03:01:51;97558.81;;;21.51;57.52
50518;BME280;37075;44.084;2.962;2023-07-28T03:04:37;97554.03;;;21.52;57.10
50518;BME280;37075;44.084;2.962;2023-07-28T03:07:51;97549.78;;;21.40;58.61
50518;BME280;37075;44.084;2.962;2023-07-28T03:10:36;97553.81;;;21.32;59.21
50518;BME280;37075;44.084;2.962;2023-07-28T03:13:22;97553.81;;;21.32;58.71
50518;BME280;37075;44.084;2.962;2023-07-28T03:16:08;97550.66;;;21.30;58.31
50518;BME280;37075;44.084;2.962;2023-07-28T03:18:55;97566.13;;;21.28;58.47
50518;BME280;37075;44.084;2.962;2023-07-28T03:21:41;97551.44;;;21.34;57.79
50518;BME280;37075;44.084;2.962;2023-07-28T03:24:28;97549.41;;;21.38;57.75
50518;BME280;37075;44.084;2.962;2023-07-28T03:27:14;97546.59;;;21.42;57.40
50518;BME280;37075;44.084;2.962;2023-07-28T03:30:00;97539.06;;;21.42;58.26
50518;BME280;37075;44.084;2.962;2023-07-28T03:32:47;97541.84;;;21.42;57.58
50518;BME280;37075;44.084;2.962;2023-07-28T03:35:32;97542.25;;;21.41;57.55
50518;BME280;37075;44.084;2.962;2023-07-28T03:38:24;97541.13;;;21.35;58.65
50518;BME280;37075;44.084;2.962;2023-07-28T03:41:11;97543.16;;;21.27;58.92
50518;BME280;37075;44.084;2.962;2023-07-28T03:43:57;97553.50;;;21.19;58.53
50518;BME280;37075;44.084;2.962;2023-07-28T03:46:43;97558.38;;;21.01;60.04
50518;BME280;37075;44.084;2.962;2023-07-28T03:49:29;97562.41;;;20.89;60.90
50518;BME280;37075;44.084;2.962;2023-07-28T03:52:15;97559.94;;;21.02;59.55
50518;BME280;37075;44.084;2.962;2023-07-28T03:55:01;97559.53;;;21.04;59.33
50518;BME280;37075;44.084;2.962;2023-07-28T03:57:48;97556.34;;;21.05;58.77
50518;BME280;37075;44.084;2.962;2023-07-28T04:00:34;97557.97;;;21.03;59.79
50518;BME280;37075;44.084;2.962;2023-07-28T04:03:20;97554.78;;;21.04;59.07
50518;BME280;37075;44.084;2.962;2023-07-28T04:06:10;97557.56;;;21.01;59.69
50518;BME280;37075;44.084;2.962;2023-07-28T04:08:56;97553.28;;;20.92;59.77
50518;BME280;37075;44.084;2.962;2023-07-28T04:11:42;97556.50;;;20.87;60.13
50518;BME280;37075;44.084;2.962;2023-07-28T04:14:29;97562.06;;;20.80;59.94
50518;BME280;37075;44.084;2.962;2023-07-28T04:17:15;97562.84;;;20.81;59.76
50518;BME280;37075;44.084;2.962;2023-07-28T04:20:03;97563.63;;;20.81;58.81
50518;BME280;37075;44.084;2.962;2023-07-28T04:22:50;97565.25;;;20.82;58.67
50518;BME280;37075;44.084;2.962;2023-07-28T04:25:36;97570.00;;;20.82;58.65
50518;BME280;37075;44.084;2.962;2023-07-28T04:28:22;97564.44;;;20.78;58.38
50518;BME280;37075;44.084;2.962;2023-07-28T04:31:11;97572.38;;;20.76;58.30
50518;BME280;37075;44.084;2.962;2023-07-28T04:34:10;97569.25;;;20.71;58.42
50518;BME280;37075;44.084;2.962;2023-07-28T04:37:15;97569.25;;;20.67;58.23
50518;BME280;37075;44.084;2.962;2023-07-28T04:40:15;97571.28;;;20.63;58.22
50518;BME280;37075;44.084;2.962;2023-07-28T04:43:00;97572.06;;;20.60;57.96
50518;BME280;37075;44.084;2.962;2023-07-28T04:45:47;97570.50;;;20.55;58.18
50518;BME280;37075;44.084;2.962;2023-07-28T04:48:38;97567.75;;;20.52;58.15
50518;BME280;37075;44.084;2.962;2023-07-28T04:51:44;97563.78;;;20.49;58.57
50518;BME280;37075;44.084;2.962;2023-07-28T04:54:59;97560.25;;;20.49;58.38
50518;BME280;37075;44.084;2.962;2023-07-28T04:57:45;97559.03;;;20.50;58.56
50518;BME280;37075;44.084;2.962;2023-07-28T05:00:31;97555.47;;;20.53;58.39
50518;BME280;37075;44.084;2.962;2023-07-28T05:03:17;97547.94;;;20.53;58.54
50518;BME280;37075;44.084;2.962;2023-07-28T05:06:16;97557.84;;;20.54;59.45
50518;BME280;37075;44.084;2.962;2023-07-28T05:09:02;97564.59;;;20.46;61.29
50518;BME280;37075;44.084;2.962;2023-07-28T05:11:52;97572.91;;;20.46;59.36
50518;BME280;37075;44.084;2.962;2023-07-28T05:14:38;97567.81;;;20.41;59.68
50518;BME280;37075;44.084;2.962;2023-07-28T05:17:24;97561.47;;;20.41;59.57
50518;BME280;37075;44.084;2.962;2023-07-28T05:20:22;97573.31;;;20.38;60.76
50518;BME280;37075;44.084;2.962;2023-07-28T05:23:15;97565.81;;;20.35;61.14
50518;BME280;37075;44.084;2.962;2023-07-28T05:26:01;97557.50;;;20.38;60.19
50518;BME280;37075;44.084;2.962;2023-07-28T05:28:47;97553.53;;;20.39;59.84
50518;BME280;37075;44.084;2.962;2023-07-28T05:31:32;97563.03;;;20.38;59.81
50518;BME280;37075;44.084;2.962;2023-07-28T05:34:20;97568.19;;;20.36;60.75
50518;BME280;37075;44.084;2.962;2023-07-28T05:37:06;97570.97;;;20.32;61.68
50518;BME280;37075;44.084;2.962;2023-07-28T05:39:53;97567.81;;;20.30;60.97
50518;BME280;37075;44.084;2.962;2023-07-28T05:42:39;97574.53;;;20.29;61.08
50518;BME280;37075;44.084;2.962;2023-07-28T05:45:26;97601.09;;;20.13;63.38
50518;BME280;37075;44.084;2.962;2023-07-28T05:48:12;97601.53;;;19.90;66.85
50518;BME280;37075;44.084;2.962;2023-07-28T05:50:58;97604.66;;;20.02;64.45
50518;BME280;37075;44.084;2.962;2023-07-28T05:53:44;97592.81;;;20.09;64.24
50518;BME280;37075;44.084;2.962;2023-07-28T05:56:31;97588.47;;;20.05;64.44
50518;BME280;37075;44.084;2.962;2023-07-28T05:59:17;97585.69;;;20.12;64.09
50518;BME280;37075;44.084;2.962;2023-07-28T06:02:03;97577.31;;;20.22;63.42
50518;BME280;37075;44.084;2.962;2023-07-28T06:05:10;97580.88;;;20.33;62.40
50518;BME280;37075;44.084;2.962;2023-07-28T06:07:56;97596.28;;;20.42;62.38
50518;BME280;37075;44.084;2.962;2023-07-28T06:10:42;97600.22;;;20.48;62.26
50518;BME280;37075;44.084;2.962;2023-07-28T06:13:30;97604.16;;;20.54;62.78
50518;BME280;37075;44.084;2.962;2023-07-28T06:16:16;97608.50;;;20.55;63.21
50518;BME280;37075;44.084;2.962;2023-07-28T06:19:05;97606.91;;;20.61;63.03
50518;BME280;37075;44.084;2.962;2023-07-28T06:21:54;97608.50;;;20.62;62.96
50518;BME280;37075;44.084;2.962;2023-07-28T06:24:40;97605.66;;;20.73;61.79
50518;BME280;37075;44.084;2.962;2023-07-28T06:27:27;97609.59;;;20.79;61.58
50518;BME280;37075;44.084;2.962;2023-07-28T06:30:14;97620.69;;;20.82;61.44
50518;BME280;37075;44.084;2.962;2023-07-28T06:33:00;97615.50;;;20.88;60.91
50518;BME280;37075;44.084;2.962;2023-07-28T06:35:47;97607.91;;;20.96;60.97
50518;BME280;37075;44.084;2.962;2023-07-28T06:38:34;97615.81;;;21.01;61.56
50518;BME280;37075;44.084;2.962;2023-07-28T06:41:20;97612.97;;;21.08;60.53
50518;BME280;37075;44.084;2.962;2023-07-28T06:44:08;97610.19;;;21.15;60.38
50518;BME280;37075;44.084;2.962;2023-07-28T06:46:56;97609.34;;;21.21;60.30
50518;BME280;37075;44.084;2.962;2023-07-28T06:49:42;97609.34;;;21.25;60.68
50518;BME280;37075;44.084;2.962;2023-07-28T06:52:29;97617.22;;;21.30;60.81
50518;BME280;37075;44.084;2.962;2023-07-28T06:55:15;97628.75;;;21.29;60.86
50518;BME280;37075;44.084;2.962;2023-07-28T06:58:00;97624.34;;;21.35;60.38
50518;BME280;37075;44.084;2.962;2023-07-28T07:00:47;97622.72;;;21.41;60.69
50518;BME280;37075;44.084;2.962;2023-07-28T07:03:38;97626.66;;;21.43;60.33
50518;BME280;37075;44.084;2.962;2023-07-28T07:06:23;97626.56;;;21.54;60.00
50518;BME280;37075;44.084;2.962;2023-07-28T07:09:10;97622.19;;;21.60;59.58
50518;BME280;37075;44.084;2.962;2023-07-28T07:11:59;97610.59;;;21.69;59.69
50518;BME280;37075;44.084;2.962;2023-07-28T07:14:45;97599.44;;;21.76;59.58
50518;BME280;37075;44.084;2.962;2023-07-28T07:17:31;97598.56;;;21.86;59.25
50518;BME280;37075;44.084;2.962;2023-07-28T07:20:18;97615.53;;;21.95;59.17
50518;BME280;37075;44.084;2.962;2023-07-28T07:23:04;97611.09;;;22.05;58.76
50518;BME280;37075;44.084;2.962;2023-07-28T07:25:50;97609.03;;;22.12;58.55
50518;BME280;37075;44.084;2.962;2023-07-28T07:28:36;97618.97;;;22.10;59.13
50518;BME280;37075;44.084;2.962;2023-07-28T07:31:22;97620.41;;;22.25;58.72
50518;BME280;37075;44.084;2.962;2023-07-28T07:34:08;97607.75;;;22.21;60.01
50518;BME280;37075;44.084;2.962;2023-07-28T07:36:55;97608.78;;;22.34;58.97
50518;BME280;37075;44.084;2.962;2023-07-28T07:39:41;97609.97;;;22.36;58.27
50518;BME280;37075;44.084;2.962;2023-07-28T07:42:28;97598.59;;;22.58;58.00
50518;BME280;37075;44.084;2.962;2023-07-28T07:45:14;97595.31;;;22.66;57.78
50518;BME280;37075;44.084;2.962;2023-07-28T07:47:59;97588.41;;;22.78;57.58
50518;BME280;37075;44.084;2.962;2023-07-28T07:50:46;97598.97;;;22.94;57.03
50518;BME280;37075;44.084;2.962;2023-07-28T07:53:33;97606.84;;;22.99;57.30
50518;BME280;37075;44.084;2.962;2023-07-28T07:56:20;97602.06;;;23.26;56.63
50518;BME280;37075;44.084;2.962;2023-07-28T07:59:06;97603.00;;;23.43;56.49
50518;BME280;37075;44.084;2.962;2023-07-28T08:01:52;97606.63;;;23.67;55.52
50518;BME280;37075;44.084;2.962;2023-07-28T08:04:38;97595.91;;;23.89;55.58
50518;BME280;37075;44.084;2.962;2023-07-28T08:07:24;97594.72;;;24.10;54.57
50518;BME280;37075;44.084;2.962;2023-07-28T08:10:11;97600.06;;;24.24;53.71
50518;BME280;37075;44.084;2.962;2023-07-28T08:12:57;97599.09;;;24.34;52.82
50518;BME280;37075;44.084;2.962;2023-07-28T08:15:44;97603.19;;;24.49;53.01
50518;BME280;37075;44.084;2.962;2023-07-28T08:18:30;97597.28;;;24.64;52.57
50518;BME280;37075;44.084;2.962;2023-07-28T08:21:16;97600.06;;;24.83;52.72
50518;BME280;37075;44.084;2.962;2023-07-28T08:24:02;97594.16;;;25.01;51.40
50518;BME280;37075;44.084;2.962;2023-07-28T08:26:49;97596.94;;;25.17;50.97
50518;BME280;37075;44.084;2.962;2023-07-28T08:29:36;97604.31;;;25.28;50.52
50518;BME280;37075;44.084;2.962;2023-07-28T08:32:22;97607.88;;;25.28;50.18
50518;BME280;37075;44.084;2.962;2023-07-28T08:35:08;97597.50;;;25.29;49.95
50518;BME280;37075;44.084;2.962;2023-07-28T08:37:54;97596.19;;;25.33;49.45
50518;BME280;37075;44.084;2.962;2023-07-28T08:40:39;97608.16;;;25.34;48.81
50518;BME280;37075;44.084;2.962;2023-07-28T08:43:27;97604.41;;;25.40;49.09
50518;BME280;37075;44.084;2.962;2023-07-28T08:46:13;97600.16;;;25.52;48.73
50518;BME280;37075;44.084;2.962;2023-07-28T08:48:58;97608.53;;;25.52;47.62
50518;BME280;37075;44.084;2.962;2023-07-28T08:51:48;97606.94;;;25.35;47.48
50518;BME280;37075;44.084;2.962;2023-07-28T08:54:34;97606.09;;;25.54;48.46
50518;BME280;37075;44.084;2.962;2023-07-28T08:57:20;97615.34;;;25.51;47.84
50518;BME280;37075;44.084;2.962;2023-07-28T09:00:08;97604.88;;;25.71;47.73
50518;BME280;37075;44.084;2.962;2023-07-28T09:02:57;97606.97;;;25.84;47.39
50518;BME280;37075;44.084;2.962;2023-07-28T09:05:43;97603.56;;;25.92;47.36
50518;BME280;37075;44.084;2.962;2023-07-28T09:08:30;97614.97;;;25.98;47.36
50518;BME280;37075;44.084;2.962;2023-07-28T09:11:17;97608.00;;;26.06;46.44
50518;BME280;37075;44.084;2.962;2023-07-28T09:14:03;97606.81;;;26.20;46.64
50518;BME280;37075;44.084;2.962;2023-07-28T09:16:59;97605.34;;;26.15;45.09
50518;BME280;37075;44.084;2.962;2023-07-28T09:19:51;97608.25;;;25.95;43.72
50518;BME280;37075;44.084;2.962;2023-07-28T09:22:38;97609.28;;;26.18;45.18
50518;BME280;37075;44.084;2.962;2023-07-28T09:25:24;97618.09;;;26.16;44.07
50518;BME280;37075;44.084;2.962;2023-07-28T09:28:10;97613.63;;;26.19;44.70
50518;BME280;37075;44.084;2.962;2023-07-28T09:30:56;97615.75;;;26.15;44.89
50518;BME280;37075;44.084;2.962;2023-07-28T09:33:43;97602.09;;;26.33;44.70
50518;BME280;37075;44.084;2.962;2023-07-28T09:36:31;97612.41;;;26.36;44.03
50518;BME280;37075;44.084;2.962;2023-07-28T09:39:17;97608.41;;;26.50;43.87
50518;BME280;37075;44.084;2.962;2023-07-28T09:42:04;97601.09;;;26.56;39.34
50518;BME280;37075;44.084;2.962;2023-07-28T09:44:54;97603.69;;;26.76;41.37
50518;BME280;37075;44.084;2.962;2023-07-28T09:47:40;97607.25;;;26.76;41.50
50518;BME280;37075;44.084;2.962;2023-07-28T09:50:28;97596.03;;;27.05;42.14
50518;BME280;37075;44.084;2.962;2023-07-28T09:53:14;97585.44;;;27.38;41.63
50518;BME280;37075;44.084;2.962;2023-07-28T09:56:01;97584.19;;;27.64;41.03
50518;BME280;37075;44.084;2.962;2023-07-28T09:58:49;97585.47;;;27.98;40.52
50518;BME280;37075;44.084;2.962;2023-07-28T10:01:35;97587.94;;;28.31;39.48
50518;BME280;37075;44.084;2.962;2023-07-28T10:04:21;97593.72;;;28.71;40.29
50518;BME280;37075;44.084;2.962;2023-07-28T10:07:08;97593.72;;;28.93;39.32
50518;BME280;37075;44.084;2.962;2023-07-28T10:09:55;97594.78;;;29.17;39.82
50518;BME280;37075;44.084;2.962;2023-07-28T10:12:41;97586.56;;;29.32;39.31
50518;BME280;37075;44.084;2.962;2023-07-28T10:15:28;97579.28;;;29.43;39.22
50518;BME280;37075;44.084;2.962;2023-07-28T10:18:14;97591.22;;;29.26;37.92
50518;BME280;37075;44.084;2.962;2023-07-28T10:21:04;97583.69;;;29.44;37.74
50518;BME280;37075;44.084;2.962;2023-07-28T10:23:55;97590.13;;;29.63;38.41
50518;BME280;37075;44.084;2.962;2023-07-28T10:26:41;97587.22;;;29.76;37.89
50518;BME280;37075;44.084;2.962;2023-07-28T10:29:28;97583.78;;;29.90;38.18
50518;BME280;37075;44.084;2.962;2023-07-28T10:32:25;97587.28;;;30.03;37.06
50518;BME280;37075;44.084;2.962;2023-07-28T10:35:22;97582.75;;;30.15;37.45
50518;BME280;37075;44.084;2.962;2023-07-28T10:41:15;97587.44;;;30.09;35.99
50518;BME280;37075;44.084;2.962;2023-07-28T10:44:01;97586.34;;;30.06;35.82
50518;BME280;37075;44.084;2.962;2023-07-28T10:46:47;97592.44;;;30.05;35.50
50518;BME280;37075;44.084;2.962;2023-07-28T10:49:34;97590.13;;;30.31;36.10
50518;BME280;37075;44.084;2.962;2023-07-28T10:52:21;97583.06;;;30.54;35.72
50518;BME280;37075;44.084;2.962;2023-07-28T10:55:12;97566.63;;;30.71;35.87
50518;BME280;37075;44.084;2.962;2023-07-28T10:58:00;97554.72;;;30.85;35.91
50518;BME280;37075;44.084;2.962;2023-07-28T11:00:46;97560.63;;;30.96;35.35
50518;BME280;37075;44.084;2.962;2023-07-28T11:03:32;97569.84;;;31.06;35.54
50518;BME280;37075;44.084;2.962;2023-07-28T11:06:18;97567.59;;;31.28;35.49
50518;BME280;37075;44.084;2.962;2023-07-28T11:09:05;97572.22;;;31.40;34.00
50518;BME280;37075;44.084;2.962;2023-07-28T11:11:52;97569.84;;;31.48;34.09
50518;BME280;37075;44.084;2.962;2023-07-28T11:14:40;97575.31;;;31.51;34.46
50518;BME280;37075;44.084;2.962;2023-07-28T11:17:25;97570.47;;;31.52;33.97
50518;BME280;37075;44.084;2.962;2023-07-28T11:20:15;97570.16;;;31.50;34.32
50518;BME280;37075;44.084;2.962;2023-07-28T11:23:02;97547.91;;;31.52;34.76
50518;BME280;37075;44.084;2.962;2023-07-28T11:25:49;97542.41;;;31.57;34.10
50518;BME280;37075;44.084;2.962;2023-07-28T11:28:34;97512.56;;;31.66;34.35
50518;BME280;37075;44.084;2.962;2023-07-28T11:31:26;97502.47;;;31.83;34.43
50518;BME280;37075;44.084;2.962;2023-07-28T11:34:12;97528.38;;;31.96;34.48
50518;BME280;37075;44.084;2.962;2023-07-28T11:36:58;97533.81;;;32.00;34.77
50518;BME280;37075;44.084;2.962;2023-07-28T11:39:45;97540.19;;;32.09;33.74
50518;BME280;37075;44.084;2.962;2023-07-28T11:42:31;97538.06;;;31.80;32.27
50518;BME280;37075;44.084;2.962;2023-07-28T11:45:18;97547.19;;;31.66;32.20
50518;BME280;37075;44.084;2.962;2023-07-28T11:48:05;97539.75;;;31.54;32.54
50518;BME280;37075;44.084;2.962;2023-07-28T11:50:52;97540.47;;;31.64;32.96
50518;BME280;37075;44.084;2.962;2023-07-28T11:53:41;97529.00;;;31.67;32.97
50518;BME280;37075;44.084;2.962;2023-07-28T11:56:27;97525.38;;;31.52;32.51
50518;BME280;37075;44.084;2.962;2023-07-28T11:59:15;97522.34;;;31.22;32.21
50518;BME280;37075;44.084;2.962;2023-07-28T12:02:02;97521.78;;;31.42;32.95
50518;BME280;37075;44.084;2.962;2023-07-28T12:04:50;97513.16;;;31.46;32.75
50518;BME280;37075;44.084;2.962;2023-07-28T12:07:38;97504.25;;;31.71;32.24
50518;BME280;37075;44.084;2.962;2023-07-28T12:10:24;97501.78;;;31.64;32.59
50518;BME280;37075;44.084;2.962;2023-07-28T12:13:10;97498.75;;;31.77;32.33
50518;BME280;37075;44.084;2.962;2023-07-28T12:15:56;97504.69;;;31.79;32.60
50518;BME280;37075;44.084;2.962;2023-07-28T12:18:42;97495.84;;;31.62;32.63
50518;BME280;37075;44.084;2.962;2023-07-28T12:21:32;97489.19;;;31.74;32.64
50518;BME280;37075;44.084;2.962;2023-07-28T12:24:18;97484.75;;;31.82;32.14
50518;BME280;37075;44.084;2.962;2023-07-28T12:27:05;97476.78;;;31.81;32.50
50518;BME280;37075;44.084;2.962;2023-07-28T12:29:51;97485.34;;;31.86;32.36
50518;BME280;37075;44.084;2.962;2023-07-28T12:32:37;97469.50;;;31.89;32.61
50518;BME280;37075;44.084;2.962;2023-07-28T12:35:24;97468.00;;;32.03;33.23
50518;BME280;37075;44.084;2.962;2023-07-28T12:38:14;97467.66;;;32.01;32.87
50518;BME280;37075;44.084;2.962;2023-07-28T12:41:00;97474.78;;;31.72;32.72
50518;BME280;37075;44.084;2.962;2023-07-28T12:43:46;97488.56;;;31.79;33.38
50518;BME280;37075;44.084;2.962;2023-07-28T12:46:32;97492.00;;;31.74;33.44
50518;BME280;37075;44.084;2.962;2023-07-28T12:49:18;97485.28;;;31.72;33.05
50518;BME280;37075;44.084;2.962;2023-07-28T12:52:05;97480.69;;;31.83;32.57
50518;BME280;37075;44.084;2.962;2023-07-28T12:54:54;97474.94;;;32.46;32.58
50518;BME280;37075;44.084;2.962;2023-07-28T12:57:40;97473.97;;;32.93;32.17
50518;BME280;37075;44.084;2.962;2023-07-28T13:00:27;97466.19;;;32.88;31.07
50518;BME280;37075;44.084;2.962;2023-07-28T13:03:13;97464.97;;;33.09;31.72
50518;BME280;37075;44.084;2.962;2023-07-28T13:05:59;97461.81;;;32.87;31.55
50518;BME280;37075;44.084;2.962;2023-07-28T13:08:45;97460.16;;;32.51;31.69
50518;BME280;37075;44.084;2.962;2023-07-28T13:11:33;97461.72;;;32.37;31.71
50518;BME280;37075;44.084;2.962;2023-07-28T13:14:19;97450.81;;;32.30;32.33
50518;BME280;37075;44.084;2.962;2023-07-28T13:17:04;97431.34;;;32.32;32.39
50518;BME280;37075;44.084;2.962;2023-07-28T13:19:51;97437.28;;;32.49;32.53
50518;BME280;37075;44.084;2.962;2023-07-28T13:22:37;97455.47;;;32.92;32.88
50518;BME280;37075;44.084;2.962;2023-07-28T13:25:23;97463.06;;;33.56;31.26
50518;BME280;37075;44.084;2.962;2023-07-28T13:28:10;97462.59;;;34.24;30.14
50518;BME280;37075;44.084;2.962;2023-07-28T13:30:56;97442.28;;;34.83;29.30
50518;BME280;37075;44.084;2.962;2023-07-28T13:33:42;97430.28;;;35.85;28.83
50518;BME280;37075;44.084;2.962;2023-07-28T13:36:28;97429.34;;;36.22;27.10
50518;BME280;37075;44.084;2.962;2023-07-28T13:39:13;97436.84;;;36.25;26.54
50518;BME280;37075;44.084;2.962;2023-07-28T13:41:59;97427.31;;;36.39;26.56
50518;BME280;37075;44.084;2.962;2023-07-28T13:44:47;97431.47;;;36.71;26.44
50518;BME280;37075;44.084;2.962;2023-07-28T13:47:32;97426.03;;;37.01;25.28
50518;BME280;37075;44.084;2.962;2023-07-28T13:50:18;97428.19;;;37.76;24.79
50518;BME280;37075;44.084;2.962;2023-07-28T13:53:04;97420.16;;;38.62;24.45
50518;BME280;37075;44.084;2.962;2023-07-28T13:55:50;97404.03;;;39.25;22.78
50518;BME280;37075;44.084;2.962;2023-07-28T13:58:36;97404.38;;;40.02;22.86
50518;BME280;37075;44.084;2.962;2023-07-28T14:01:24;97409.88;;;40.38;21.40
50518;BME280;37075;44.084;2.962;2023-07-28T14:04:10;97421.13;;;40.49;20.77
50518;BME280;37075;44.084;2.962;2023-07-28T14:06:56;97414.59;;;39.54;21.18
50518;BME280;37075;44.084;2.962;2023-07-28T14:09:43;97421.56;;;38.80;22.39
50518;BME280;37075;44.084;2.962;2023-07-28T14:12:29;97418.53;;;37.90;23.51
50518;BME280;37075;44.084;2.962;2023-07-28T14:15:15;97407.78;;;38.18;23.64
50518;BME280;37075;44.084;2.962;2023-07-28T14:18:02;97412.28;;;38.74;22.13
50518;BME280;37075;44.084;2.962;2023-07-28T14:20:48;97396.56;;;39.65;22.00
50518;BME280;37075;44.084;2.962;2023-07-28T14:23:35;97394.50;;;40.03;20.97
50518;BME280;37075;44.084;2.962;2023-07-28T14:26:21;97396.00;;;40.60;20.41
50518;BME280;37075;44.084;2.962;2023-07-28T14:29:06;97394.56;;;41.25;19.33
50518;BME280;37075;44.084;2.962;2023-07-28T14:31:52;97383.38;;;39.81;20.28
50518;BME280;37075;44.084;2.962;2023-07-28T14:34:40;97381.97;;;39.25;21.10
50518;BME280;37075;44.084;2.962;2023-07-28T14:37:26;97381.91;;;38.46;22.27
50518;BME280;37075;44.084;2.962;2023-07-28T14:40:11;97381.56;;;39.15;22.02
50518;BME280;37075;44.084;2.962;2023-07-28T14:42:57;97388.91;;;39.30;21.60
50518;BME280;37075;44.084;2.962;2023-07-28T14:45:43;97387.09;;;40.13;20.75
50518;BME280;37075;44.084;2.962;2023-07-28T14:48:29;97389.84;;;40.70;20.17